createdAt,value
2018-01-12T00:00:17.636Z,1006.8
2018-01-12T00:01:18.401Z,1006.8
2018-01-12T00:02:19.132Z,1006.7
2018-01-12T00:03:19.851Z,1006.7
2018-01-12T00:04:20.569Z,1006.7
2018-01-12T00:05:21.304Z,1006.7
2018-01-12T00:06:22.012Z,1006.7
2018-01-12T00:07:22.797Z,1006.7
2018-01-12T00:08:23.557Z,1006.7
2018-01-12T00:09:24.288Z,1006.7
2018-01-12T00:10:25.008Z,1006.8
2018-01-12T00:11:25.753Z,1006.7
2018-01-12T00:12:26.424Z,1006.7
2018-01-12T00:13:27.160Z,1006.7
2018-01-12T00:14:27.957Z,1006.7
2018-01-12T00:15:28.694Z,1006.7
2018-01-12T00:16:29.422Z,1006.7
2018-01-12T00:17:30.152Z,1006.7
2018-01-12T00:18:30.863Z,1006.8
2018-01-12T00:19:31.591Z,1006.8
2018-01-12T00:20:32.319Z,1006.8
2018-01-12T00:22:47.308Z,1006.8
2018-01-12T00:23:48.342Z,1006.8
2018-01-12T00:24:49.078Z,1006.9
2018-01-12T00:25:49.817Z,1006.8
2018-01-12T00:26:50.594Z,1006.8
2018-01-12T00:27:51.312Z,1006.9
2018-01-12T00:28:52.039Z,1006.9
2018-01-12T00:29:52.767Z,1006.9
2018-01-12T00:30:53.488Z,1006.9
2018-01-12T00:31:54.207Z,1006.9
2018-01-12T00:32:54.932Z,1006.9
2018-01-12T00:33:55.974Z,1006.9
2018-01-12T00:34:56.758Z,1006.9
2018-01-12T00:35:57.432Z,1006.9
2018-01-12T00:36:58.148Z,1006.9
2018-01-12T00:37:58.888Z,1006.9
2018-01-12T00:38:59.692Z,1006.9
2018-01-12T00:40:01.394Z,1006.9
2018-01-12T00:41:02.112Z,1006.9
2018-01-12T00:42:02.870Z,1006.9
2018-01-12T00:43:03.985Z,1007.0
2018-01-12T00:44:04.702Z,1007.0
2018-01-12T00:45:05.486Z,1007.0
2018-01-12T00:46:06.213Z,1007.0
2018-01-12T00:47:06.992Z,1007.0
2018-01-12T00:48:07.717Z,1007.0
2018-01-12T00:49:08.439Z,1007.0
2018-01-12T00:50:09.251Z,1007.0
2018-01-12T00:51:09.986Z,1007.0
2018-01-12T00:52:10.829Z,1007.0
2018-01-12T00:53:11.538Z,1007.0
2018-01-12T00:54:12.350Z,1007.0
2018-01-12T00:55:13.139Z,1007.0
2018-01-12T00:56:13.871Z,1007.1
2018-01-12T00:57:14.601Z,1007.1
2018-01-12T00:58:15.321Z,1007.1
2018-01-12T00:59:16.077Z,1007.1
2018-01-12T01:00:16.807Z,1007.1
2018-01-12T01:01:17.588Z,1007.1
2018-01-12T01:02:18.333Z,1007.1
2018-01-12T01:03:19.062Z,1007.1
2018-01-12T01:04:19.845Z,1007.2
2018-01-12T01:05:20.627Z,1007.1
2018-01-12T01:06:21.292Z,1007.2
2018-01-12T01:07:22.019Z,1007.2
2018-01-12T01:08:22.742Z,1007.2
2018-01-12T01:09:23.792Z,1007.2
2018-01-12T01:10:24.501Z,1007.2
2018-01-12T01:11:25.300Z,1007.2
2018-01-12T01:12:26.018Z,1007.2
2018-01-12T01:13:26.735Z,1007.2
2018-01-12T01:14:27.461Z,1007.2
2018-01-12T01:15:28.281Z,1007.2
2018-01-12T01:16:29.012Z,1007.2
2018-01-12T01:17:29.790Z,1007.2
2018-01-12T01:18:30.578Z,1007.2
2018-01-12T01:19:31.411Z,1007.3
2018-01-12T01:20:32.140Z,1007.3
2018-01-12T01:21:32.882Z,1007.3
2018-01-12T01:22:33.670Z,1007.3
2018-01-12T01:23:34.393Z,1007.3
2018-01-12T01:24:35.137Z,1007.4
2018-01-12T01:25:35.881Z,1007.4
2018-01-12T01:26:36.898Z,1007.4
2018-01-12T01:27:37.619Z,1007.4
2018-01-12T01:28:38.418Z,1007.4
2018-01-12T01:29:39.226Z,1007.4
2018-01-12T01:30:39.989Z,1007.4
2018-01-12T01:31:40.723Z,1007.4
2018-01-12T01:32:41.446Z,1007.4
2018-01-12T01:33:42.171Z,1007.4
2018-01-12T01:34:42.892Z,1007.5
2018-01-12T01:35:43.629Z,1007.5
2018-01-12T01:36:44.350Z,1007.5
2018-01-12T01:37:45.080Z,1007.5
2018-01-12T01:38:46.096Z,1007.5
2018-01-12T01:39:46.817Z,1007.5
2018-01-12T01:40:47.542Z,1007.5
2018-01-12T01:41:48.358Z,1007.5
2018-01-12T01:42:49.084Z,1007.5
2018-01-12T01:43:49.865Z,1007.5
2018-01-12T01:44:50.587Z,1007.5
2018-01-12T01:45:51.312Z,1007.5
2018-01-12T01:46:52.046Z,1007.6
2018-01-12T01:47:52.833Z,1007.6
2018-01-12T01:48:53.563Z,1007.6
2018-01-12T01:49:54.338Z,1007.6
2018-01-12T01:50:55.062Z,1007.7
2018-01-12T01:51:55.794Z,1007.7
2018-01-12T01:52:56.533Z,1007.7
2018-01-12T01:53:57.312Z,1007.7
2018-01-12T01:54:58.028Z,1007.7
2018-01-12T01:55:58.753Z,1007.7
2018-01-12T01:56:59.472Z,1007.7
2018-01-12T01:58:00.200Z,1007.7
2018-01-12T01:59:00.931Z,1007.7
2018-01-12T02:00:01.973Z,1007.7
2018-01-12T02:01:02.791Z,1007.7
2018-01-12T02:02:03.515Z,1007.7
2018-01-12T02:03:04.234Z,1007.7
2018-01-12T02:04:04.964Z,1007.7
2018-01-12T02:05:06.065Z,1007.7
2018-01-12T02:06:06.852Z,1007.7
2018-01-12T02:07:07.642Z,1007.7
2018-01-12T02:08:08.387Z,1007.7
2018-01-12T02:09:09.159Z,1007.7
2018-01-12T02:10:09.961Z,1007.7
2018-01-12T02:11:10.703Z,1007.7
2018-01-12T02:12:11.481Z,1007.6
2018-01-12T02:13:12.216Z,1007.6
2018-01-12T02:14:13.051Z,1007.6
2018-01-12T02:15:13.777Z,1007.7
2018-01-12T02:16:14.571Z,1007.6
2018-01-12T02:17:15.287Z,1007.7
2018-01-12T02:18:16.016Z,1007.6
2018-01-12T02:19:16.751Z,1007.7
2018-01-12T02:20:17.482Z,1007.6
2018-01-12T02:21:18.201Z,1007.6
2018-01-12T02:22:18.933Z,1007.7
2018-01-12T02:23:19.704Z,1007.6
2018-01-12T02:24:20.430Z,1007.7
2018-01-12T02:25:21.163Z,1007.7
2018-01-12T02:26:21.979Z,1007.7
2018-01-12T02:27:22.753Z,1007.7
2018-01-12T02:28:23.491Z,1007.6
2018-01-12T02:29:24.221Z,1007.6
2018-01-12T02:30:24.959Z,1007.6
2018-01-12T02:31:25.753Z,1007.6
2018-01-12T02:32:26.540Z,1007.6
2018-01-12T02:33:27.274Z,1007.6
2018-01-12T02:34:28.041Z,1007.6
2018-01-12T02:35:28.760Z,1007.6
2018-01-12T02:36:29.503Z,1007.6
2018-01-12T02:37:30.529Z,1007.7
2018-01-12T02:38:31.248Z,1007.7
2018-01-12T02:39:31.978Z,1007.7
2018-01-12T02:40:32.710Z,1007.7
2018-01-12T02:41:33.436Z,1007.7
2018-01-12T02:42:34.259Z,1007.7
2018-01-12T02:43:35.022Z,1007.7
2018-01-12T02:44:35.787Z,1007.7
2018-01-12T02:45:36.520Z,1007.7
2018-01-12T02:46:37.256Z,1007.7
2018-01-12T02:47:38.044Z,1007.7
2018-01-12T02:48:38.848Z,1007.7
2018-01-12T02:49:39.641Z,1007.7
2018-01-12T02:50:40.358Z,1007.7
2018-01-12T02:51:41.155Z,1007.7
2018-01-12T02:52:41.962Z,1007.7
2018-01-12T02:53:42.815Z,1007.8
2018-01-12T02:54:43.520Z,1007.8
2018-01-12T02:55:44.274Z,1007.8
2018-01-12T02:56:44.976Z,1007.8
2018-01-12T02:57:45.693Z,1007.8
2018-01-12T02:58:46.800Z,1007.8
2018-01-12T02:59:47.541Z,1007.8
2018-01-12T03:00:48.336Z,1007.8
2018-01-12T03:01:49.122Z,1007.8
2018-01-12T03:02:49.920Z,1007.8
2018-01-12T03:03:50.701Z,1007.9
2018-01-12T03:04:51.432Z,1007.8
2018-01-12T03:05:53.051Z,1007.9
2018-01-12T03:06:53.721Z,1008.0
2018-01-12T03:07:54.437Z,1007.9
2018-01-12T03:08:55.197Z,1007.9
2018-01-12T03:09:55.919Z,1007.9
2018-01-12T03:10:56.736Z,1007.9
2018-01-12T03:11:57.508Z,1007.9
2018-01-12T03:12:58.274Z,1007.9
2018-01-12T03:13:59.089Z,1008.0
2018-01-12T03:14:59.868Z,1008.0
2018-01-12T03:16:00.614Z,1008.0
2018-01-12T03:17:01.431Z,1008.0
2018-01-12T03:18:02.147Z,1008.0
2018-01-12T03:19:02.867Z,1008.0
2018-01-12T03:20:03.602Z,1008.0
2018-01-12T03:21:04.415Z,1008.0
2018-01-12T03:22:05.145Z,1008.0
2018-01-12T03:23:05.952Z,1007.9
2018-01-12T03:24:06.680Z,1008.0
2018-01-12T03:25:07.497Z,1008.0
2018-01-12T03:26:08.270Z,1008.0
2018-01-12T03:27:09.010Z,1007.9
2018-01-12T03:28:09.749Z,1008.0
2018-01-12T03:29:10.531Z,1008.0
2018-01-12T03:30:11.349Z,1008.0
2018-01-12T03:31:12.122Z,1008.0
2018-01-12T03:32:12.863Z,1008.0
2018-01-12T03:33:13.567Z,1008.0
2018-01-12T03:34:14.287Z,1008.0
2018-01-12T03:35:15.026Z,1008.0
2018-01-12T03:36:16.111Z,1008.0
2018-01-12T03:37:16.841Z,1008.1
2018-01-12T03:38:17.556Z,1008.0
2018-01-12T03:39:18.276Z,1008.1
2018-01-12T03:40:19.003Z,1008.0
2018-01-12T03:41:19.818Z,1008.0
2018-01-12T03:42:20.613Z,1008.1
2018-01-12T03:43:21.335Z,1008.1
2018-01-12T03:44:22.071Z,1008.1
2018-01-12T03:45:22.806Z,1008.1
2018-01-12T03:46:23.610Z,1008.1
2018-01-12T03:47:24.344Z,1008.1
2018-01-12T03:48:25.065Z,1008.1
2018-01-12T03:49:25.800Z,1008.0
2018-01-12T03:50:26.531Z,1008.0
2018-01-12T03:51:27.258Z,1008.0
2018-01-12T03:52:28.031Z,1008.0
2018-01-12T03:53:28.841Z,1008.0
2018-01-12T03:54:29.572Z,1008.0
2018-01-12T03:55:30.303Z,1008.0
2018-01-12T03:56:31.092Z,1008.0
2018-01-12T03:57:31.833Z,1008.0
2018-01-12T03:58:32.625Z,1008.0
2018-01-12T03:59:33.342Z,1008.0
2018-01-12T04:00:34.134Z,1007.9
2018-01-12T04:01:34.859Z,1007.9
2018-01-12T04:02:35.584Z,1007.9
2018-01-12T04:03:36.420Z,1007.9
2018-01-12T04:04:37.141Z,1007.9
2018-01-12T04:05:37.874Z,1007.9
2018-01-12T04:06:38.595Z,1007.9
2018-01-12T04:07:39.326Z,1008.0
2018-01-12T04:08:40.201Z,1007.9
2018-01-12T04:09:40.972Z,1007.9
2018-01-12T04:10:41.802Z,1008.0
2018-01-12T04:11:42.522Z,1008.0
2018-01-12T04:12:43.243Z,1008.0
2018-01-12T04:13:44.018Z,1008.0
2018-01-12T04:14:44.744Z,1008.0
2018-01-12T04:15:45.480Z,1008.0
2018-01-12T04:16:46.248Z,1008.0
2018-01-12T04:17:46.976Z,1008.0
2018-01-12T04:18:47.747Z,1008.0
2018-01-12T04:19:48.563Z,1008.0
2018-01-12T04:20:49.330Z,1008.0
2018-01-12T04:21:50.077Z,1008.1
2018-01-12T04:22:50.814Z,1008.1
2018-01-12T04:23:51.555Z,1008.1
2018-01-12T04:24:52.334Z,1008.1
2018-01-12T04:25:53.055Z,1008.1
2018-01-12T04:26:53.824Z,1008.1
2018-01-12T04:27:54.563Z,1008.1
2018-01-12T04:28:55.290Z,1008.1
2018-01-12T04:29:56.085Z,1008.1
2018-01-12T04:30:56.823Z,1008.1
2018-01-12T04:31:57.547Z,1008.1
2018-01-12T04:32:58.365Z,1008.1
2018-01-12T04:33:59.174Z,1008.1
2018-01-12T04:34:59.904Z,1008.1
2018-01-12T04:36:00.630Z,1008.1
2018-01-12T04:37:01.359Z,1008.2
2018-01-12T04:38:02.086Z,1008.2
2018-01-12T04:39:02.814Z,1008.1
2018-01-12T04:40:03.581Z,1008.1
2018-01-12T04:41:04.304Z,1008.1
2018-01-12T04:42:05.045Z,1008.2
2018-01-12T04:43:05.838Z,1008.2
2018-01-12T04:44:06.610Z,1008.2
2018-01-12T04:45:07.404Z,1008.2
2018-01-12T04:46:08.173Z,1008.2
2018-01-12T04:47:08.951Z,1008.2
2018-01-12T04:48:09.736Z,1008.3
2018-01-12T04:49:10.461Z,1008.2
2018-01-12T04:50:11.221Z,1008.3
2018-01-12T04:51:11.963Z,1008.2
2018-01-12T04:52:12.743Z,1008.3
2018-01-12T04:53:13.473Z,1008.3
2018-01-12T04:54:14.199Z,1008.3
2018-01-12T04:55:14.924Z,1008.2
2018-01-12T04:56:15.652Z,1008.3
2018-01-12T04:57:16.465Z,1008.3
2018-01-12T04:58:17.214Z,1008.2
2018-01-12T04:59:17.951Z,1008.2
2018-01-12T05:00:18.683Z,1008.3
2018-01-12T05:01:19.405Z,1008.2
2018-01-12T05:02:20.138Z,1008.3
2018-01-12T05:03:20.929Z,1008.3
2018-01-12T05:04:21.665Z,1008.3
2018-01-12T05:05:22.408Z,1008.3
2018-01-12T05:06:23.203Z,1008.3
2018-01-12T05:07:23.934Z,1008.3
2018-01-12T05:08:24.659Z,1008.3
2018-01-12T05:09:25.384Z,1008.3
2018-01-12T05:10:26.185Z,1008.3
2018-01-12T05:11:27.051Z,1008.3
2018-01-12T05:12:27.763Z,1008.4
2018-01-12T05:13:28.488Z,1008.3
2018-01-12T05:14:29.293Z,1008.4
2018-01-12T05:15:30.023Z,1008.4
2018-01-12T05:16:30.752Z,1008.3
2018-01-12T05:17:31.474Z,1008.3
2018-01-12T05:18:32.250Z,1008.3
2018-01-12T05:19:32.982Z,1008.4
2018-01-12T05:20:33.713Z,1008.4
2018-01-12T05:21:34.431Z,1008.4
2018-01-12T05:22:35.243Z,1008.3
2018-01-12T05:23:36.329Z,1008.3
2018-01-12T05:24:37.136Z,1008.3
2018-01-12T05:25:37.856Z,1008.3
2018-01-12T05:26:38.589Z,1008.4
2018-01-12T05:27:39.322Z,1008.4
2018-01-12T05:28:40.091Z,1008.3
2018-01-12T05:29:40.893Z,1008.3
2018-01-12T05:30:41.624Z,1008.3
2018-01-12T05:31:42.340Z,1008.3
2018-01-12T05:32:43.065Z,1008.3
2018-01-12T05:33:43.845Z,1008.3
2018-01-12T05:34:44.574Z,1008.3
2018-01-12T05:35:45.305Z,1008.3
2018-01-12T05:36:46.084Z,1008.3
2018-01-12T05:37:46.873Z,1008.3
2018-01-12T05:38:47.671Z,1008.3
2018-01-12T05:39:48.468Z,1008.3
2018-01-12T05:40:49.202Z,1008.3
2018-01-12T05:41:50.012Z,1008.3
2018-01-12T05:42:50.804Z,1008.3
2018-01-12T05:43:51.526Z,1008.4
2018-01-12T05:44:52.260Z,1008.3
2018-01-12T05:45:52.974Z,1008.3
2018-01-12T05:46:53.758Z,1008.3
2018-01-12T05:47:54.490Z,1008.3
2018-01-12T05:48:55.226Z,1008.4
2018-01-12T05:49:55.991Z,1008.3
2018-01-12T05:50:56.699Z,1008.4
2018-01-12T05:51:57.419Z,1008.4
2018-01-12T05:52:58.145Z,1008.4
2018-01-12T05:53:58.874Z,1008.4
2018-01-12T05:54:59.603Z,1008.4
2018-01-12T05:56:00.327Z,1008.4
2018-01-12T05:57:01.117Z,1008.4
2018-01-12T05:58:01.841Z,1008.4
2018-01-12T05:59:02.651Z,1008.4
2018-01-12T06:00:03.438Z,1008.4
2018-01-12T06:01:04.155Z,1008.4
2018-01-12T06:02:05.019Z,1008.4
2018-01-12T06:03:05.743Z,1008.4
2018-01-12T06:04:06.483Z,1008.4
2018-01-12T06:05:07.243Z,1008.4
2018-01-12T06:06:07.983Z,1008.4
2018-01-12T06:07:08.714Z,1008.4
2018-01-12T06:08:09.444Z,1008.4
2018-01-12T06:09:10.223Z,1008.4
2018-01-12T06:10:10.954Z,1008.5
2018-01-12T06:11:11.676Z,1008.5
2018-01-12T06:12:12.389Z,1008.5
2018-01-12T06:13:13.169Z,1008.5
2018-01-12T06:14:13.905Z,1008.5
2018-01-12T06:15:14.704Z,1008.6
2018-01-12T06:16:15.429Z,1008.6
2018-01-12T06:17:16.567Z,1008.6
2018-01-12T06:18:17.227Z,1008.6
2018-01-12T06:19:17.994Z,1008.6
2018-01-12T06:20:18.754Z,1008.6
2018-01-12T06:21:19.557Z,1008.6
2018-01-12T06:22:20.316Z,1008.6
2018-01-12T06:23:21.034Z,1008.6
2018-01-12T06:24:21.765Z,1008.6
2018-01-12T06:25:22.505Z,1008.6
2018-01-12T06:26:23.304Z,1008.6
2018-01-12T06:27:24.093Z,1008.7
2018-01-12T06:28:24.814Z,1008.7
2018-01-12T06:29:25.532Z,1008.7
2018-01-12T06:30:26.283Z,1008.7
2018-01-12T06:31:27.025Z,1008.7
2018-01-12T06:32:27.846Z,1008.7
2018-01-12T06:33:28.624Z,1008.7
2018-01-12T06:34:29.341Z,1008.7
2018-01-12T06:35:30.130Z,1008.7
2018-01-12T06:36:30.855Z,1008.8
2018-01-12T06:37:31.671Z,1008.7
2018-01-12T06:38:32.498Z,1008.8
2018-01-12T06:39:33.193Z,1008.8
2018-01-12T06:40:33.907Z,1008.7
2018-01-12T06:41:34.683Z,1008.8
2018-01-12T06:42:35.405Z,1008.8
2018-01-12T06:43:36.199Z,1008.8
2018-01-12T06:44:36.934Z,1008.8
2018-01-12T06:45:37.724Z,1008.8
2018-01-12T06:46:38.540Z,1008.8
2018-01-12T06:47:39.257Z,1008.8
2018-01-12T06:48:40.035Z,1008.8
2018-01-12T06:49:40.835Z,1008.8
2018-01-12T06:50:41.583Z,1008.8
2018-01-12T06:51:42.415Z,1008.8
2018-01-12T06:52:43.158Z,1008.8
2018-01-12T06:53:43.953Z,1008.8
2018-01-12T06:54:44.680Z,1008.9
2018-01-12T06:55:45.503Z,1008.9
2018-01-12T06:56:46.236Z,1008.9
2018-01-12T06:57:46.969Z,1008.9
2018-01-12T06:58:48.062Z,1008.9
2018-01-12T06:59:48.861Z,1008.9
2018-01-12T07:00:49.588Z,1008.9
2018-01-12T07:01:50.310Z,1008.9
2018-01-12T07:02:51.091Z,1008.9
2018-01-12T07:03:52.211Z,1008.9
2018-01-12T07:04:52.951Z,1008.9
2018-01-12T07:05:53.762Z,1008.9
2018-01-12T07:06:54.492Z,1008.9
2018-01-12T07:07:55.234Z,1008.9
2018-01-12T07:08:56.063Z,1008.9
2018-01-12T07:09:56.879Z,1008.9
2018-01-12T07:10:57.680Z,1009.0
2018-01-12T07:11:58.412Z,1009.0
2018-01-12T07:12:59.138Z,1009.0
2018-01-12T07:14:00.211Z,1009.0
2018-01-12T07:15:00.890Z,1009.0
2018-01-12T07:16:01.613Z,1009.0
2018-01-12T07:17:02.403Z,1009.0
2018-01-12T07:18:03.119Z,1009.0
2018-01-12T07:19:04.162Z,1009.0
2018-01-12T07:20:05.003Z,1009.0
2018-01-12T07:21:05.695Z,1009.1
2018-01-12T07:22:06.494Z,1009.0
2018-01-12T07:23:07.368Z,1009.1
2018-01-12T07:24:08.181Z,1009.1
2018-01-12T07:25:08.972Z,1009.1
2018-01-12T07:26:09.708Z,1009.1
2018-01-12T07:27:10.432Z,1009.1
2018-01-12T07:28:11.148Z,1009.1
2018-01-12T07:29:11.879Z,1009.1
2018-01-12T07:30:12.616Z,1009.1
2018-01-12T07:31:13.394Z,1009.2
2018-01-12T07:32:14.115Z,1009.2
2018-01-12T07:33:14.839Z,1009.1
2018-01-12T07:34:15.630Z,1009.1
2018-01-12T07:35:16.353Z,1009.2
2018-01-12T07:36:17.082Z,1009.2
2018-01-12T07:37:17.809Z,1009.2
2018-01-12T07:38:18.539Z,1009.3
2018-01-12T07:39:19.298Z,1009.3
2018-01-12T07:40:20.000Z,1009.2
2018-01-12T07:41:20.733Z,1009.3
2018-01-12T07:42:21.450Z,1009.3
2018-01-12T07:43:22.195Z,1009.2
2018-01-12T07:44:22.936Z,1009.3
2018-01-12T07:45:24.137Z,1009.3
2018-01-12T07:46:24.982Z,1009.3
2018-01-12T07:47:27.270Z,1009.3
2018-01-12T07:48:28.190Z,1009.3
2018-01-12T07:49:28.959Z,1009.4
2018-01-12T07:50:30.074Z,1009.3
2018-01-12T07:51:30.844Z,1009.4
2018-01-12T07:52:31.566Z,1009.4
2018-01-12T07:53:32.302Z,1009.4
2018-01-12T07:54:33.024Z,1009.4
2018-01-12T07:55:33.751Z,1009.5
2018-01-12T07:56:34.549Z,1009.4
2018-01-12T07:57:35.584Z,1009.4
2018-01-12T07:58:36.300Z,1009.4
2018-01-12T07:59:37.027Z,1009.5
2018-01-12T08:00:37.810Z,1009.5
2018-01-12T08:01:38.553Z,1009.5
2018-01-12T08:02:39.324Z,1009.5
2018-01-12T08:03:40.048Z,1009.5
2018-01-12T08:04:40.877Z,1009.6
2018-01-12T08:05:41.647Z,1009.6
2018-01-12T08:06:42.377Z,1009.6
2018-01-12T08:07:43.121Z,1009.6
2018-01-12T08:08:43.849Z,1009.7
2018-01-12T08:09:44.570Z,1009.6
2018-01-12T08:10:45.390Z,1009.7
2018-01-12T08:11:46.169Z,1009.6
2018-01-12T08:12:47.206Z,1009.7
2018-01-12T08:13:47.942Z,1009.7
2018-01-12T08:14:48.729Z,1009.7
2018-01-12T08:15:49.472Z,1009.7
2018-01-12T08:16:50.193Z,1009.7
2018-01-12T08:17:51.227Z,1009.7
2018-01-12T08:18:51.950Z,1009.7
2018-01-12T08:19:52.682Z,1009.8
2018-01-12T08:20:53.632Z,1009.8
2018-01-12T08:21:54.358Z,1009.8
2018-01-12T08:22:55.503Z,1009.8
2018-01-12T08:23:56.312Z,1009.8
2018-01-12T08:24:57.031Z,1009.8
2018-01-12T08:25:57.757Z,1009.9
2018-01-12T08:26:58.543Z,1009.8
2018-01-12T08:27:59.324Z,1009.8
2018-01-12T08:29:00.070Z,1009.9
2018-01-12T08:30:00.789Z,1009.9
2018-01-12T08:31:01.518Z,1009.9
2018-01-12T08:32:02.239Z,1009.9
2018-01-12T08:33:02.972Z,1009.9
2018-01-12T08:34:03.743Z,1009.9
2018-01-12T08:35:04.481Z,1009.9
2018-01-12T08:36:05.152Z,1009.9
2018-01-12T08:37:05.934Z,1009.9
2018-01-12T08:38:06.666Z,1009.9
2018-01-12T08:39:07.522Z,1010.0
2018-01-12T08:40:08.311Z,1010.0
2018-01-12T08:41:09.095Z,1009.9
2018-01-12T08:42:09.888Z,1010.0
2018-01-12T08:43:10.671Z,1010.0
2018-01-12T08:44:11.422Z,1010.0
2018-01-12T08:45:12.148Z,1010.0
2018-01-12T08:46:12.882Z,1010.0
2018-01-12T08:47:13.615Z,1010.0
2018-01-12T08:48:14.433Z,1010.0
2018-01-12T08:49:15.164Z,1010.0
2018-01-12T08:50:16.273Z,1010.0
2018-01-12T08:51:17.004Z,1010.0
2018-01-12T08:52:17.738Z,1010.0
2018-01-12T08:53:18.562Z,1010.0
2018-01-12T08:54:19.342Z,1010.0
2018-01-12T08:55:20.074Z,1010.1
2018-01-12T08:56:20.894Z,1010.1
2018-01-12T08:57:21.622Z,1010.1
2018-01-12T08:58:22.348Z,1010.1
2018-01-12T08:59:23.069Z,1010.2
2018-01-12T09:00:23.804Z,1010.2
2018-01-12T09:01:24.579Z,1010.2
2018-01-12T09:02:25.313Z,1010.2
2018-01-12T09:03:26.050Z,1010.3
2018-01-12T09:04:26.783Z,1010.3
2018-01-12T09:05:27.513Z,1010.3
2018-01-12T09:06:28.319Z,1010.3
2018-01-12T09:07:29.422Z,1010.3
2018-01-12T09:08:30.149Z,1010.4
2018-01-12T09:09:30.884Z,1010.3
2018-01-12T09:10:31.621Z,1010.3
2018-01-12T09:11:32.342Z,1010.3
2018-01-12T09:12:33.373Z,1010.4
2018-01-12T09:13:34.102Z,1010.4
2018-01-12T09:14:34.831Z,1010.4
2018-01-12T09:15:35.563Z,1010.4
2018-01-12T09:16:36.296Z,1010.4
2018-01-12T09:17:37.079Z,1010.4
2018-01-12T09:18:37.809Z,1010.4
2018-01-12T09:19:38.545Z,1010.4
2018-01-12T09:20:39.289Z,1010.4
2018-01-12T09:21:40.019Z,1010.4
2018-01-12T09:22:40.750Z,1010.4
2018-01-12T09:23:41.511Z,1010.4
2018-01-12T09:24:42.235Z,1010.4
2018-01-12T09:25:42.968Z,1010.4
2018-01-12T09:26:43.707Z,1010.5
2018-01-12T09:27:44.435Z,1010.5
2018-01-12T09:28:45.524Z,1010.5
2018-01-12T09:29:46.307Z,1010.5
2018-01-12T09:30:47.134Z,1010.4
2018-01-12T09:31:47.860Z,1010.5
2018-01-12T09:32:48.599Z,1010.5
2018-01-12T09:33:49.375Z,1010.5
2018-01-12T09:34:50.092Z,1010.5
2018-01-12T09:35:50.898Z,1010.5
2018-01-12T09:36:51.621Z,1010.5
2018-01-12T09:37:52.440Z,1010.6
2018-01-12T09:38:53.227Z,1010.6
2018-01-12T09:39:54.036Z,1010.6
2018-01-12T09:40:54.806Z,1010.6
2018-01-12T09:41:55.526Z,1010.6
2018-01-12T09:42:56.247Z,1010.6
2018-01-12T09:43:56.975Z,1010.6
2018-01-12T09:44:58.075Z,1010.6
2018-01-12T09:45:58.802Z,1010.6
2018-01-12T09:46:59.520Z,1010.6
2018-01-12T09:48:00.334Z,1010.6
2018-01-12T09:49:01.056Z,1010.6
2018-01-12T09:50:01.793Z,1010.6
2018-01-12T09:51:02.534Z,1010.6
2018-01-12T09:52:03.268Z,1010.6
2018-01-12T09:53:03.995Z,1010.6
2018-01-12T09:54:04.728Z,1010.6
2018-01-12T09:55:05.535Z,1010.6
2018-01-12T09:56:06.312Z,1010.6
2018-01-12T09:57:07.041Z,1010.6
2018-01-12T09:58:07.820Z,1010.6
2018-01-12T09:59:08.676Z,1010.6
2018-01-12T10:00:09.392Z,1010.6
2018-01-12T10:01:10.221Z,1010.6
2018-01-12T10:02:10.927Z,1010.6
2018-01-12T10:03:11.655Z,1010.6
2018-01-12T10:04:12.389Z,1010.6
2018-01-12T10:05:13.184Z,1010.6
2018-01-12T10:06:14.024Z,1010.7
2018-01-12T10:07:14.749Z,1010.7
2018-01-12T10:08:15.478Z,1010.7
2018-01-12T10:09:16.212Z,1010.7
2018-01-12T10:10:16.940Z,1010.7
2018-01-12T10:11:17.754Z,1010.7
2018-01-12T10:12:18.558Z,1010.7
2018-01-12T10:13:19.293Z,1010.7
2018-01-12T10:14:20.022Z,1010.7
2018-01-12T10:15:20.757Z,1010.7
2018-01-12T10:16:21.495Z,1010.7
2018-01-12T10:17:22.347Z,1010.7
2018-01-12T10:18:23.148Z,1010.7
2018-01-12T10:19:23.877Z,1010.7
2018-01-12T10:20:24.623Z,1010.7
2018-01-12T10:21:25.359Z,1010.7
2018-01-12T10:22:26.114Z,1010.7
2018-01-12T10:23:26.922Z,1010.7
2018-01-12T10:24:27.655Z,1010.7
2018-01-12T10:25:28.393Z,1010.7
2018-01-12T10:26:29.124Z,1010.7
2018-01-12T10:27:29.939Z,1010.7
2018-01-12T10:28:30.975Z,1010.7
2018-01-12T10:29:31.732Z,1010.8
2018-01-12T10:30:32.433Z,1010.8
2018-01-12T10:31:33.174Z,1010.7
2018-01-12T10:32:33.926Z,1010.7
2018-01-12T10:33:34.662Z,1010.7
2018-01-12T10:34:35.389Z,1010.7
2018-01-12T10:35:36.181Z,1010.7
2018-01-12T10:36:36.939Z,1010.7
2018-01-12T10:37:37.743Z,1010.7
2018-01-12T10:38:38.520Z,1010.7
2018-01-12T10:39:39.276Z,1010.7
2018-01-12T10:40:40.121Z,1010.7
2018-01-12T10:41:40.869Z,1010.8
2018-01-12T10:42:41.584Z,1010.8
2018-01-12T10:43:42.357Z,1010.8
2018-01-12T10:44:43.101Z,1010.8
2018-01-12T10:45:43.884Z,1010.7
2018-01-12T10:46:44.608Z,1010.7
2018-01-12T10:47:45.390Z,1010.7
2018-01-12T10:48:46.196Z,1010.7
2018-01-12T10:49:46.926Z,1010.7
2018-01-12T10:50:47.725Z,1010.7
2018-01-12T10:51:48.466Z,1010.7
2018-01-12T10:52:49.202Z,1010.7
2018-01-12T10:53:49.938Z,1010.7
2018-01-12T10:54:50.658Z,1010.7
2018-01-12T10:55:51.384Z,1010.8
2018-01-12T10:56:52.167Z,1010.8
2018-01-12T10:57:52.954Z,1010.8
2018-01-12T10:58:53.756Z,1010.7
2018-01-12T10:59:55.442Z,1010.7
2018-01-12T11:00:56.498Z,1010.7
2018-01-12T11:01:57.916Z,1010.8
2018-01-12T11:02:58.600Z,1010.8
2018-01-12T11:03:59.332Z,1010.8
2018-01-12T11:05:00.078Z,1010.8
2018-01-12T11:06:00.886Z,1010.8
2018-01-12T11:07:03.223Z,1010.8
2018-01-12T11:08:04.160Z,1010.8
2018-01-12T11:09:05.010Z,1010.8
2018-01-12T11:10:05.741Z,1010.7
2018-01-12T11:11:06.452Z,1010.8
2018-01-12T11:12:07.182Z,1010.7
2018-01-12T11:13:07.906Z,1010.7
2018-01-12T11:14:08.634Z,1010.7
2018-01-12T11:15:09.425Z,1010.7
2018-01-12T11:16:10.246Z,1010.7
2018-01-12T11:17:10.975Z,1010.7
2018-01-12T11:18:11.820Z,1010.7
2018-01-12T11:19:12.561Z,1010.7
2018-01-12T11:20:13.372Z,1010.7
2018-01-12T11:21:14.101Z,1010.8
2018-01-12T11:22:14.924Z,1010.8
2018-01-12T11:23:15.742Z,1010.8
2018-01-12T11:24:16.523Z,1010.8
2018-01-12T11:25:17.408Z,1010.7
2018-01-12T11:26:18.240Z,1010.8
2018-01-12T11:27:19.050Z,1010.7
2018-01-12T11:28:19.861Z,1010.8
2018-01-12T11:29:20.588Z,1010.7
2018-01-12T11:30:21.311Z,1010.7
2018-01-12T11:31:22.123Z,1010.7
2018-01-12T11:32:22.902Z,1010.7
2018-01-12T11:33:23.683Z,1010.7
2018-01-12T11:34:24.420Z,1010.7
2018-01-12T11:35:25.218Z,1010.7
2018-01-12T11:36:25.943Z,1010.6
2018-01-12T11:37:26.738Z,1010.6
2018-01-12T11:38:27.858Z,1010.7
2018-01-12T11:39:28.658Z,1010.6
2018-01-12T11:40:29.379Z,1010.6
2018-01-12T11:41:30.113Z,1010.6
2018-01-12T11:42:30.859Z,1010.6
2018-01-12T11:43:31.634Z,1010.6
2018-01-12T11:44:32.344Z,1010.6
2018-01-12T11:45:33.076Z,1010.6
2018-01-12T11:46:33.851Z,1010.6
2018-01-12T11:47:34.652Z,1010.6
2018-01-12T11:48:35.381Z,1010.6
2018-01-12T11:49:36.184Z,1010.6
2018-01-12T11:50:36.994Z,1010.6
2018-01-12T11:51:37.750Z,1010.6
2018-01-12T11:52:38.492Z,1010.6
2018-01-12T11:53:39.238Z,1010.6
2018-01-12T11:54:40.032Z,1010.5
2018-01-12T11:55:40.781Z,1010.6
2018-01-12T11:56:41.563Z,1010.6
2018-01-12T11:57:42.294Z,1010.6
2018-01-12T11:58:43.034Z,1010.6
2018-01-12T11:59:43.830Z,1010.5
2018-01-12T12:00:44.550Z,1010.5
2018-01-12T12:01:45.334Z,1010.6
2018-01-12T12:02:46.129Z,1010.6
2018-01-12T12:03:46.873Z,1010.5
2018-01-12T12:04:47.619Z,1010.5
2018-01-12T12:05:48.426Z,1010.6
2018-01-12T12:06:49.153Z,1010.5
2018-01-12T12:07:49.953Z,1010.5
2018-01-12T12:08:50.687Z,1010.5
2018-01-12T12:09:51.423Z,1010.5
2018-01-12T12:10:52.163Z,1010.5
2018-01-12T12:11:52.892Z,1010.5
2018-01-12T12:12:53.664Z,1010.5
2018-01-12T12:13:54.412Z,1010.5
2018-01-12T12:14:55.189Z,1010.5
2018-01-12T12:15:56.002Z,1010.5
2018-01-12T12:16:56.734Z,1010.5
2018-01-12T12:17:57.566Z,1010.5
2018-01-12T12:18:58.238Z,1010.5
2018-01-12T12:19:59.053Z,1010.5
2018-01-12T12:20:59.831Z,1010.5
2018-01-12T12:22:00.560Z,1010.5
2018-01-12T12:23:01.383Z,1010.5
2018-01-12T12:24:02.114Z,1010.5
2018-01-12T12:25:02.912Z,1010.5
2018-01-12T12:26:03.646Z,1010.5
2018-01-12T12:27:04.374Z,1010.5
2018-01-12T12:28:05.187Z,1010.5
2018-01-12T12:29:05.913Z,1010.5
2018-01-12T12:30:06.648Z,1010.5
2018-01-12T12:31:07.435Z,1010.5
2018-01-12T12:32:08.232Z,1010.5
2018-01-12T12:33:08.967Z,1010.5
2018-01-12T12:34:09.760Z,1010.5
2018-01-12T12:35:10.495Z,1010.5
2018-01-12T12:36:11.221Z,1010.5
2018-01-12T12:37:11.950Z,1010.6
2018-01-12T12:38:12.768Z,1010.5
2018-01-12T12:39:13.549Z,1010.5